createdAt,value
2022-09-15T00:00:04.817Z,1.40
2022-09-15T00:02:31.669Z,1.33
2022-09-15T00:04:58.112Z,1.50
2022-09-15T00:07:24.437Z,1.40
2022-09-15T00:09:50.835Z,1.38
2022-09-15T00:12:17.743Z,1.20
2022-09-15T00:14:44.103Z,1.17
2022-09-15T00:17:10.540Z,1.08
2022-09-15T00:19:37.165Z,1.20
2022-09-15T00:22:03.498Z,1.23
2022-09-15T00:24:29.874Z,1.15
2022-09-15T00:26:56.840Z,1.10
2022-09-15T00:29:23.168Z,1.25
2022-09-15T00:31:49.514Z,1.08
2022-09-15T00:34:16.269Z,1.20
2022-09-15T00:36:42.629Z,1.60
2022-09-15T00:39:08.990Z,1.20
2022-09-15T00:41:35.728Z,1.27
2022-09-15T00:44:25.214Z,1.30
2022-09-15T00:47:15.246Z,1.10
2022-09-15T00:49:39.889Z,1.05
2022-09-15T00:52:15.750Z,1.20
2022-09-15T00:54:42.073Z,1.00
2022-09-15T00:57:14.322Z,1.42
2022-09-15T00:59:41.683Z,1.10
2022-09-15T01:02:08.361Z,1.20
2022-09-15T01:04:34.731Z,1.10
2022-09-15T01:07:03.745Z,1.02
2022-09-15T01:09:36.730Z,0.80
2022-09-15T01:12:03.405Z,1.20
2022-09-15T01:14:29.764Z,1.03
2022-09-15T01:17:03.973Z,1.35
2022-09-15T01:19:48.989Z,1.00
2022-09-15T01:22:44.890Z,1.00
2022-09-15T01:25:22.189Z,1.00
2022-09-15T01:27:54.433Z,1.25
2022-09-15T01:30:21.543Z,0.77
2022-09-15T01:33:06.180Z,1.08
2022-09-15T01:35:40.521Z,1.08
2022-09-15T01:38:25.573Z,1.30
2022-09-15T01:40:55.665Z,1.38
2022-09-15T01:43:23.380Z,1.70
2022-09-15T01:45:50.354Z,1.30
2022-09-15T01:48:19.715Z,1.10
2022-09-15T01:50:48.215Z,1.20
2022-09-15T01:53:16.030Z,1.08
2022-09-15T01:56:02.734Z,1.15
2022-09-15T01:58:29.086Z,1.30
2022-09-15T02:01:12.566Z,1.17
2022-09-15T02:03:44.258Z,1.10
2022-09-15T02:06:16.918Z,1.10
2022-09-15T02:08:49.848Z,1.02
2022-09-15T02:11:18.276Z,1.10
2022-09-15T02:13:48.788Z,1.15
2022-09-15T02:16:22.104Z,0.95
2022-09-15T02:19:11.181Z,1.00
2022-09-15T02:21:46.546Z,1.10
2022-09-15T02:24:15.738Z,1.05
2022-09-15T02:26:43.197Z,0.98
2022-09-15T02:29:13.117Z,1.00
2022-09-15T02:31:40.016Z,0.90
2022-09-15T02:34:10.333Z,1.33
2022-09-15T02:36:37.748Z,1.08
2022-09-15T02:39:07.178Z,0.88
2022-09-15T02:41:34.372Z,0.95
2022-09-15T02:44:00.885Z,1.02
2022-09-15T02:46:28.270Z,1.00
2022-09-15T02:48:54.616Z,1.10
2022-09-15T02:51:20.921Z,1.08
2022-09-15T02:53:47.294Z,1.13
2022-09-15T02:56:16.577Z,1.00
2022-09-15T02:58:43.582Z,1.05
2022-09-15T03:01:15.021Z,0.85
2022-09-15T03:04:11.550Z,0.80
2022-09-15T03:06:37.906Z,0.88
2022-09-15T03:09:06.590Z,1.02
2022-09-15T03:11:33.398Z,1.00
2022-09-15T03:14:01.175Z,1.10
2022-09-15T03:16:28.756Z,1.10
2022-09-15T03:21:22.201Z,0.82
2022-09-15T03:23:48.605Z,1.00
2022-09-15T03:26:14.929Z,1.10
2022-09-15T03:28:41.310Z,0.90
2022-09-15T03:31:08.276Z,1.20
2022-09-15T03:33:34.793Z,1.10
2022-09-15T03:36:01.367Z,0.90
2022-09-15T03:38:27.783Z,1.13
2022-09-15T03:40:58.261Z,1.35
2022-09-15T03:43:24.587Z,1.30
2022-09-15T03:45:51.034Z,1.20
2022-09-15T03:48:17.457Z,1.40
2022-09-15T03:50:43.788Z,1.10
2022-09-15T03:53:10.120Z,1.10
2022-09-15T03:55:36.526Z,0.82
2022-09-15T03:58:02.866Z,0.90
2022-09-15T04:00:29.413Z,1.08
2022-09-15T04:02:55.873Z,1.05
2022-09-15T04:05:22.230Z,1.13
2022-09-15T04:07:50.278Z,1.10
2022-09-15T04:10:16.709Z,0.98
2022-09-15T04:12:44.318Z,1.02
2022-09-15T04:15:10.788Z,1.00
2022-09-15T04:17:37.166Z,1.20
2022-09-15T04:20:03.779Z,1.10
2022-09-15T04:22:30.952Z,1.00
2022-09-15T04:24:57.373Z,0.90
2022-09-15T04:27:23.739Z,0.95
2022-09-15T04:29:52.940Z,1.20
2022-09-15T04:32:19.616Z,0.93
2022-09-15T04:34:46.033Z,1.02
2022-09-15T04:37:12.730Z,1.30
2022-09-15T04:39:39.129Z,1.00
2022-09-15T04:42:07.859Z,1.00
2022-09-15T04:44:34.557Z,0.80
2022-09-15T04:47:00.942Z,1.00
2022-09-15T04:49:28.641Z,0.90
2022-09-15T04:51:55.448Z,0.70
2022-09-15T04:54:21.810Z,0.80
2022-09-15T04:56:48.899Z,1.10
2022-09-15T04:59:16.117Z,1.00
2022-09-15T05:01:43.030Z,0.93
2022-09-15T05:04:09.557Z,1.00
2022-09-15T05:06:36.375Z,0.90
2022-09-15T05:09:09.067Z,1.03
2022-09-15T05:11:36.512Z,0.95
2022-09-15T05:14:03.320Z,1.10
2022-09-15T05:16:30.115Z,0.87
2022-09-15T05:18:57.691Z,1.03
2022-09-15T05:21:24.442Z,1.25
2022-09-15T05:23:52.035Z,0.90
2022-09-15T05:26:25.824Z,0.98
2022-09-15T05:28:52.544Z,1.08
2022-09-15T05:31:19.906Z,1.25
2022-09-15T05:33:46.986Z,1.05
2022-09-15T05:36:17.403Z,1.33
2022-09-15T05:38:43.913Z,1.17
2022-09-15T05:41:11.411Z,0.93
2022-09-15T05:43:38.357Z,1.00
2022-09-15T05:46:05.422Z,0.98
2022-09-15T05:48:31.948Z,1.10
2022-09-15T05:50:58.475Z,1.20
2022-09-15T05:53:25.316Z,1.02
2022-09-15T05:55:59.014Z,1.17
2022-09-15T05:58:25.955Z,1.13
2022-09-15T06:00:55.764Z,1.42
2022-09-15T06:03:25.295Z,1.20
2022-09-15T06:06:00.765Z,0.90
2022-09-15T06:08:31.841Z,0.82
2022-09-15T06:11:02.423Z,1.20
2022-09-15T06:13:28.822Z,1.17
2022-09-15T06:16:00.410Z,1.20
2022-09-15T06:18:26.875Z,1.15
2022-09-15T06:20:53.303Z,1.05
2022-09-15T06:23:19.608Z,1.30
2022-09-15T06:25:45.967Z,1.38
2022-09-15T06:28:12.295Z,0.88
2022-09-15T06:30:39.237Z,1.17
2022-09-15T06:33:05.619Z,1.42
2022-09-15T06:35:32.101Z,1.40
2022-09-15T06:37:58.423Z,1.20
2022-09-15T06:40:24.940Z,1.20
2022-09-15T06:42:54.725Z,1.27
2022-09-15T06:45:21.401Z,0.98
2022-09-15T06:47:54.643Z,1.15
2022-09-15T06:50:34.101Z,1.17
2022-09-15T06:53:00.499Z,0.90
2022-09-15T06:55:27.837Z,0.75
2022-09-15T06:57:54.174Z,1.10
2022-09-15T07:00:20.812Z,1.10
2022-09-15T07:02:50.334Z,1.25
2022-09-15T07:05:16.850Z,1.17
2022-09-15T07:07:43.258Z,1.25
2022-09-15T07:10:09.717Z,1.10
2022-09-15T07:12:36.034Z,1.20
2022-09-15T07:15:02.898Z,0.90
2022-09-15T07:17:29.242Z,1.35
2022-09-15T07:19:55.605Z,1.13
2022-09-15T07:22:21.962Z,1.17
2022-09-15T07:24:48.342Z,1.30
2022-09-15T07:27:14.718Z,0.95
2022-09-15T07:29:41.056Z,1.17
2022-09-15T07:32:07.508Z,1.15
2022-09-15T07:34:33.890Z,1.23
2022-09-15T07:37:00.299Z,1.10
2022-09-15T07:39:26.610Z,0.95
2022-09-15T07:41:52.919Z,0.95
2022-09-15T07:44:19.269Z,1.30
2022-09-15T07:46:46.263Z,1.02
2022-09-15T07:49:12.696Z,1.40
2022-09-15T07:51:39.048Z,1.30
2022-09-15T07:54:05.499Z,1.05
2022-09-15T07:56:31.922Z,1.23
2022-09-15T07:58:58.488Z,1.02
2022-09-15T08:01:25.035Z,1.23
2022-09-15T08:03:52.184Z,1.05
2022-09-15T08:06:19.973Z,1.05
2022-09-15T08:11:18.416Z,1.05
2022-09-15T08:13:49.386Z,1.17
2022-09-15T08:16:20.226Z,1.25
2022-09-15T08:18:47.112Z,3.13
2022-09-15T08:21:15.507Z,1.20
2022-09-15T08:23:41.870Z,1.20
2022-09-15T08:26:13.592Z,1.13
2022-09-15T08:28:40.914Z,0.90
2022-09-15T08:31:08.540Z,1.30
2022-09-15T08:36:03.515Z,1.13
2022-09-15T08:38:29.930Z,1.40
2022-09-15T08:41:00.786Z,1.10
2022-09-15T08:43:29.729Z,1.00
2022-09-15T08:45:58.809Z,1.30
2022-09-15T08:48:27.722Z,1.20
2022-09-15T08:50:55.132Z,1.17
2022-09-15T08:53:25.281Z,1.17
2022-09-15T08:55:55.859Z,1.17
2022-09-15T08:58:25.329Z,0.85
2022-09-15T09:00:57.818Z,1.30
2022-09-15T09:03:38.118Z,0.90
2022-09-15T09:06:07.488Z,0.98
2022-09-15T09:08:39.746Z,0.90
2022-09-15T09:11:24.678Z,0.82
2022-09-15T09:13:54.280Z,0.85
2022-09-15T09:16:29.566Z,0.82
2022-09-15T09:19:19.595Z,0.95
2022-09-15T09:21:54.311Z,1.20
2022-09-15T09:24:32.990Z,0.70
2022-09-15T09:26:59.414Z,0.88
2022-09-15T09:29:39.352Z,0.60
2022-09-15T09:32:26.063Z,0.68
2022-09-15T09:35:25.064Z,0.60
2022-09-15T09:37:52.250Z,0.90
2022-09-15T09:40:19.336Z,0.90
2022-09-15T09:42:45.934Z,0.90
2022-09-15T09:45:16.523Z,0.63
2022-09-15T09:47:43.063Z,0.70
2022-09-15T09:50:30.247Z,0.63
2022-09-15T09:52:56.902Z,1.00
2022-09-15T09:55:24.516Z,0.70
2022-09-15T09:57:51.128Z,0.80
2022-09-15T10:00:29.711Z,0.70
2022-09-15T10:02:56.041Z,0.88
2022-09-15T10:05:22.610Z,0.70
2022-09-15T10:07:49.033Z,1.17
2022-09-15T10:10:19.553Z,1.02
2022-09-15T10:12:46.974Z,0.73
2022-09-15T10:17:41.454Z,0.50
2022-09-15T10:20:21.050Z,0.80
2022-09-15T10:22:47.539Z,0.70
2022-09-15T10:25:19.811Z,0.77
2022-09-15T10:28:06.381Z,0.75
2022-09-15T10:30:32.734Z,0.60
2022-09-15T10:33:17.488Z,0.63
2022-09-15T10:35:44.367Z,0.80
2022-09-15T10:38:16.597Z,1.15
2022-09-15T10:40:51.794Z,0.80
2022-09-15T10:43:21.222Z,0.80
2022-09-15T10:45:48.973Z,0.70
2022-09-15T10:48:21.226Z,1.15
2022-09-15T10:50:51.871Z,0.80
2022-09-15T10:53:27.030Z,0.75
2022-09-15T10:56:01.258Z,0.80
2022-09-15T10:58:27.605Z,0.70
2022-09-15T11:00:57.095Z,0.50
2022-09-15T11:03:23.486Z,0.90
2022-09-15T11:05:55.854Z,0.70
2022-09-15T11:08:40.929Z,1.08
2022-09-15T11:11:22.584Z,0.77
2022-09-15T11:14:06.014Z,0.75
2022-09-15T11:16:51.408Z,0.70
2022-09-15T11:19:36.232Z,0.70
2022-09-15T11:22:07.268Z,0.90
2022-09-15T11:24:39.473Z,0.73
2022-09-15T11:27:26.102Z,0.60
2022-09-15T11:32:22.138Z,0.70
2022-09-15T11:35:07.437Z,0.80
2022-09-15T11:37:40.213Z,0.60
2022-09-15T11:40:17.612Z,1.00
2022-09-15T11:42:44.871Z,0.70
2022-09-15T11:45:20.233Z,0.65
2022-09-15T11:47:50.401Z,0.80
2022-09-15T11:50:26.389Z,0.90
2022-09-15T11:52:52.694Z,0.50
2022-09-15T11:55:38.226Z,0.73
2022-09-15T11:58:07.971Z,0.80
2022-09-15T12:00:38.242Z,1.27
2022-09-15T12:03:18.089Z,0.55
2022-09-15T12:06:04.718Z,0.88
2022-09-15T12:08:37.726Z,0.82
2022-09-15T12:11:07.518Z,0.70
2022-09-15T12:13:34.380Z,0.77
2022-09-15T12:16:04.197Z,0.80
2022-09-15T12:18:41.002Z,1.02
2022-09-15T12:21:21.208Z,1.00
2022-09-15T12:23:53.461Z,0.90
2022-09-15T12:26:21.722Z,0.90
2022-09-15T12:28:55.865Z,1.77
2022-09-15T12:31:32.798Z,1.35
2022-09-15T12:34:04.270Z,1.20
2022-09-15T12:36:32.635Z,1.10
2022-09-15T12:38:59.554Z,1.30
2022-09-15T12:41:26.145Z,1.05
2022-09-15T12:43:54.558Z,2.00
2022-09-15T12:46:21.029Z,1.02
2022-09-15T12:48:47.983Z,0.85
2022-09-15T12:51:22.431Z,2.88
2022-09-15T12:53:48.786Z,1.83
2022-09-15T12:56:23.467Z,1.50
2022-09-15T12:58:50.741Z,1.40
2022-09-15T13:01:23.491Z,0.93
2022-09-15T13:03:50.045Z,0.73
2022-09-15T13:06:23.937Z,1.30
2022-09-15T13:09:10.526Z,1.00
2022-09-15T13:11:40.066Z,0.90
2022-09-15T13:14:12.666Z,0.70
2022-09-15T13:16:39.394Z,0.98
2022-09-15T13:21:33.924Z,0.98
2022-09-15T13:24:02.586Z,0.93
2022-09-15T13:26:30.386Z,0.70
2022-09-15T13:28:57.860Z,0.82
2022-09-15T13:31:27.531Z,0.90
2022-09-15T13:40:13.001Z,1.17
2022-09-15T13:42:42.453Z,1.02
2022-09-15T13:45:18.229Z,0.70
2022-09-15T13:47:51.371Z,0.80
2022-09-15T13:50:25.132Z,0.73
2022-09-15T13:53:00.278Z,0.70
2022-09-15T13:55:34.025Z,0.70
2022-09-15T14:00:53.003Z,0.60
2022-09-15T14:03:23.854Z,0.80
2022-09-15T14:05:50.197Z,0.80
2022-09-15T14:08:18.606Z,0.85
2022-09-15T14:10:54.749Z,0.57
2022-09-15T14:16:11.903Z,0.85
2022-09-15T14:18:42.891Z,0.65
2022-09-15T14:21:23.006Z,0.52
2022-09-15T14:23:59.101Z,0.50
2022-09-15T14:26:27.094Z,0.50
2022-09-15T14:28:56.015Z,0.70
2022-09-15T14:31:48.533Z,0.80
2022-09-15T14:34:16.975Z,0.90
2022-09-15T14:36:43.407Z,0.77
2022-09-15T14:39:12.731Z,0.82
2022-09-15T14:41:40.096Z,0.60
2022-09-15T14:45:54.915Z,0.70
2022-09-15T14:47:22.029Z,0.88
2022-09-15T14:49:48.931Z,0.80
2022-09-15T14:52:22.938Z,0.70
2022-09-15T14:54:50.084Z,0.70
2022-09-15T14:57:19.039Z,1.00
2022-09-15T14:59:47.736Z,0.82
2022-09-15T15:02:32.737Z,1.00
2022-09-15T15:05:04.682Z,1.00
2022-09-15T15:07:32.078Z,0.70
2022-09-15T15:10:00.242Z,0.90
2022-09-15T15:12:41.162Z,0.90
2022-09-15T15:15:10.725Z,0.80
2022-09-15T15:17:39.021Z,0.68
2022-09-15T15:20:08.549Z,1.05
2022-09-15T15:22:35.814Z,0.60
2022-09-15T15:27:34.499Z,0.60
2022-09-15T15:30:19.522Z,0.68
2022-09-15T15:32:46.052Z,0.50
2022-09-15T15:35:19.040Z,0.73
2022-09-15T15:37:45.658Z,0.85
2022-09-15T15:40:15.054Z,0.75
2022-09-15T15:42:57.803Z,0.57
2022-09-15T15:45:27.751Z,2.97
2022-09-15T15:47:54.105Z,2.90
2022-09-15T15:50:22.918Z,2.47
2022-09-15T15:52:49.539Z,1.10
2022-09-15T15:55:17.738Z,1.00
2022-09-15T15:57:44.546Z,0.80
2022-09-15T16:00:21.057Z,0.82
2022-09-15T16:02:48.088Z,1.20
2022-09-15T16:05:14.658Z,1.40
2022-09-15T16:07:41.161Z,1.00
2022-09-15T16:10:08.111Z,0.90
2022-09-15T16:12:35.473Z,0.90
2022-09-15T16:15:02.846Z,0.90
2022-09-15T16:17:29.162Z,0.80
2022-09-15T16:19:55.952Z,0.50
2022-09-15T16:22:22.369Z,0.60
2022-09-15T16:24:48.808Z,0.70
2022-09-15T16:27:16.243Z,0.82
2022-09-15T16:29:43.008Z,0.60
2022-09-15T16:32:15.777Z,0.40
2022-09-15T16:34:42.190Z,0.80
2022-09-15T16:37:08.891Z,0.87
2022-09-15T16:39:35.227Z,0.70
2022-09-15T16:42:01.553Z,0.70
2022-09-15T16:44:27.906Z,0.93
2022-09-15T16:46:54.375Z,0.60
2022-09-15T16:49:20.742Z,0.50
2022-09-15T16:51:47.087Z,0.55
2022-09-15T16:54:15.287Z,0.57
2022-09-15T16:56:41.853Z,0.57
2022-09-15T16:59:08.215Z,0.57
2022-09-15T17:01:34.573Z,0.75
2022-09-15T17:04:01.752Z,0.60
2022-09-15T17:06:28.162Z,0.90
2022-09-15T17:08:55.718Z,0.60
2022-09-15T17:11:25.458Z,0.57
2022-09-15T17:13:51.919Z,0.70
2022-09-15T17:16:22.005Z,0.90
2022-09-15T17:18:48.496Z,0.30
2022-09-15T17:21:16.670Z,0.65
2022-09-15T17:23:44.849Z,0.73
2022-09-15T17:26:24.649Z,0.60
2022-09-15T17:28:52.865Z,0.60
2022-09-15T17:31:20.611Z,0.50
2022-09-15T17:33:47.698Z,0.50
2022-09-15T17:36:14.867Z,0.50
2022-09-15T17:38:41.525Z,0.50
2022-09-15T17:41:13.019Z,0.93
2022-09-15T17:43:39.446Z,0.70
2022-09-15T17:46:05.969Z,0.80
2022-09-15T17:48:32.370Z,0.63
2022-09-15T17:51:00.898Z,0.60
2022-09-15T17:53:27.470Z,0.60
2022-09-15T17:55:54.668Z,0.60
2022-09-15T17:58:21.729Z,0.90
2022-09-15T18:00:48.670Z,0.82
2022-09-15T18:03:24.720Z,1.00
2022-09-15T18:05:51.562Z,0.70
2022-09-15T18:08:17.931Z,0.90
2022-09-15T18:10:44.550Z,0.93
2022-09-15T18:13:20.994Z,0.70
2022-09-15T18:15:48.916Z,0.40
2022-09-15T18:18:16.814Z,0.43
2022-09-15T18:20:43.326Z,0.85
2022-09-15T18:23:17.470Z,0.80
2022-09-15T18:25:44.418Z,0.60
2022-09-15T18:28:10.845Z,0.60
2022-09-15T18:30:40.625Z,0.40
2022-09-15T18:33:08.134Z,0.60
2022-09-15T18:35:34.789Z,0.50
2022-09-15T18:38:01.081Z,0.57
2022-09-15T18:40:27.930Z,0.57
2022-09-15T18:42:54.756Z,0.63
2022-09-15T18:45:21.062Z,0.52
2022-09-15T18:47:51.516Z,0.50
2022-09-15T18:50:20.261Z,0.50
2022-09-15T18:52:47.021Z,0.75
2022-09-15T18:55:16.203Z,0.65
2022-09-15T18:57:43.014Z,0.80
2022-09-15T19:00:17.252Z,0.80
2022-09-15T19:02:44.008Z,0.90
2022-09-15T19:05:15.601Z,1.13
2022-09-15T19:07:42.839Z,0.82
2022-09-15T19:10:10.918Z,0.93
2022-09-15T19:12:37.467Z,1.10
2022-09-15T19:15:04.844Z,1.17
2022-09-15T19:17:31.225Z,1.02
2022-09-15T19:19:57.858Z,1.30
2022-09-15T19:22:24.246Z,1.57
2022-09-15T19:24:50.682Z,1.83
2022-09-15T19:27:17.096Z,1.02
2022-09-15T19:29:43.434Z,1.83
2022-09-15T19:32:11.153Z,1.90
2022-09-15T19:34:38.654Z,1.80
2022-09-15T19:39:36.455Z,1.15
2022-09-15T19:42:02.961Z,1.13
2022-09-15T19:44:29.298Z,1.20
2022-09-15T19:46:56.036Z,1.23
2022-09-15T19:49:22.402Z,1.10
2022-09-15T19:51:55.048Z,1.20
2022-09-15T19:54:22.414Z,1.50
2022-09-15T19:56:48.970Z,1.08
2022-09-15T19:59:15.612Z,1.05
2022-09-15T20:01:41.916Z,1.20
2022-09-15T20:04:08.297Z,1.20
2022-09-15T20:06:35.444Z,1.10
2022-09-15T20:09:01.974Z,1.02
2022-09-15T20:11:29.523Z,1.08
2022-09-15T20:13:55.889Z,0.60
2022-09-15T20:16:23.144Z,1.10
2022-09-15T20:18:50.670Z,0.95
2022-09-15T20:21:45.804Z,0.77
2022-09-15T20:24:08.248Z,0.75
2022-09-15T20:26:34.602Z,0.90
2022-09-15T20:29:02.182Z,1.10
2022-09-15T20:33:55.579Z,0.70
2022-09-15T20:36:26.144Z,0.70
2022-09-15T20:38:53.301Z,0.60
2022-09-15T20:41:22.665Z,0.95
2022-09-15T20:43:49.561Z,0.90
2022-09-15T20:46:17.527Z,0.85
2022-09-15T20:48:44.327Z,0.70
2022-09-15T20:51:12.285Z,0.90
2022-09-15T20:53:39.335Z,0.77
2022-09-15T20:56:05.739Z,0.90
2022-09-15T20:58:36.043Z,0.70
2022-09-15T21:01:22.727Z,1.00
2022-09-15T21:03:49.187Z,0.80
2022-09-15T21:06:17.108Z,1.13
2022-09-15T21:08:43.582Z,0.98
2022-09-15T21:11:11.405Z,2.10
2022-09-15T21:13:38.540Z,3.08
2022-09-15T21:16:06.479Z,3.05
2022-09-15T21:18:34.382Z,2.80
2022-09-15T21:21:01.979Z,2.70
2022-09-15T21:26:02.248Z,1.83
2022-09-15T21:28:29.273Z,1.83
2022-09-15T21:31:27.813Z,1.05
2022-09-15T21:33:54.571Z,1.40
2022-09-15T21:36:24.757Z,0.95
2022-09-15T21:38:51.726Z,1.10
2022-09-15T21:41:20.834Z,0.80
2022-09-15T21:43:47.914Z,1.10
2022-09-15T21:46:15.478Z,0.90
2022-09-15T21:48:42.254Z,0.95
2022-09-15T21:51:10.478Z,0.90
2022-09-15T21:53:37.013Z,1.50
2022-09-15T21:56:05.050Z,1.10
2022-09-15T21:58:38.987Z,0.93
2022-09-15T22:01:21.430Z,1.13
2022-09-15T22:03:49.738Z,1.10
2022-09-15T22:06:16.820Z,1.10
2022-09-15T22:08:43.770Z,1.20
2022-09-15T22:11:10.500Z,1.20
2022-09-15T22:13:38.828Z,1.50
2022-09-15T22:16:10.583Z,1.30
2022-09-15T22:18:37.720Z,1.40
2022-09-15T22:21:23.890Z,1.45
2022-09-15T22:23:51.736Z,1.42
2022-09-15T22:26:19.571Z,1.23
2022-09-15T22:31:13.232Z,1.30
2022-09-15T22:33:41.227Z,0.95
2022-09-15T22:36:11.132Z,0.80
2022-09-15T22:38:38.124Z,1.20
2022-09-15T22:41:05.725Z,1.40
2022-09-15T22:43:32.563Z,0.68
2022-09-15T22:45:59.394Z,1.20
2022-09-15T22:48:25.754Z,1.27
2022-09-15T22:50:52.142Z,0.90
2022-09-15T22:53:18.516Z,1.30
2022-09-15T22:55:44.905Z,0.73
2022-09-15T22:58:11.326Z,1.23
2022-09-15T23:00:38.076Z,1.20
2022-09-15T23:03:04.668Z,0.70
2022-09-15T23:05:31.035Z,0.90
2022-09-15T23:07:57.402Z,0.85
2022-09-15T23:10:23.794Z,1.10
2022-09-15T23:12:50.154Z,0.90
2022-09-15T23:15:16.500Z,0.77
2022-09-15T23:17:42.865Z,0.90
2022-09-15T23:20:09.674Z,0.90
2022-09-15T23:22:36.059Z,0.80
2022-09-15T23:25:02.472Z,0.80
2022-09-15T23:27:28.869Z,1.25
2022-09-15T23:29:55.205Z,0.70
2022-09-15T23:32:21.543Z,0.70
2022-09-15T23:34:48.812Z,4.18
2022-09-15T23:37:15.130Z,8.02
2022-09-15T23:39:41.872Z,16.52
2022-09-15T23:42:08.231Z,22.75
2022-09-15T23:44:34.584Z,46.88
2022-09-15T23:47:00.961Z,58.50
2022-09-15T23:49:27.341Z,53.53
2022-09-15T23:51:53.673Z,39.08
2022-09-15T23:54:20.083Z,26.75
2022-09-15T23:56:47.647Z,16.80
2022-09-15T23:59:14.558Z,14.20
